sensor_id;sensor_type;location;lat;lon;timestamp;pressure;altitude;pressure_sealevel;temperature;humidity
36598;BME280;22607;49.550;11.940;2023-08-06T00:00:54;96075.69;;;16.53;100.00
36598;BME280;22607;49.550;11.940;2023-08-06T00:03:20;96072.25;;;16.53;100.00
36598;BME280;22607;49.550;11.940;2023-08-06T00:05:47;96064.97;;;16.60;100.00
36598;BME280;22607;49.550;11.940;2023-08-06T00:08:14;96057.47;;;16.57;100.00
36598;BME280;22607;49.550;11.940;2023-08-06T00:10:40;96054.97;;;16.62;100.00
36598;BME280;22607;49.550;11.940;2023-08-06T00:13:08;96056.91;;;16.67;100.00
36598;BME280;22607;49.550;11.940;2023-08-06T00:15:34;96050.81;;;16.66;100.00
36598;BME280;22607;49.550;11.940;2023-08-06T00:18:01;96054.16;;;16.62;100.00
36598;BME280;22607;49.550;11.940;2023-08-06T00:20:28;96060.13;;;16.69;100.00
36598;BME280;22607;49.550;11.940;2023-08-06T00:22:54;96054.16;;;16.62;100.00
36598;BME280;22607;49.550;11.940;2023-08-06T00:25:21;96062.69;;;16.64;100.00
36598;BME280;22607;49.550;11.940;2023-08-06T00:27:47;96056.25;;;16.72;100.00
36598;BME280;22607;49.550;11.940;2023-08-06T00:30:14;96049.91;;;16.73;100.00
36598;BME280;22607;49.550;11.940;2023-08-06T00:32:40;96051.72;;;16.72;100.00
36598;BME280;22607;49.550;11.940;2023-08-06T00:35:07;96051.50;;;16.74;100.00
36598;BME280;22607;49.550;11.940;2023-08-06T00:37:34;96050.25;;;16.76;100.00
36598;BME280;22607;49.550;11.940;2023-08-06T00:40:00;96054.72;;;16.64;100.00
36598;BME280;22607;49.550;11.940;2023-08-06T00:42:27;96049.31;;;16.59;100.00
36598;BME280;22607;49.550;11.940;2023-08-06T00:44:53;96051.50;;;16.62;100.00
36598;BME280;22607;49.550;11.940;2023-08-06T00:47:20;96082.16;;;16.58;100.00
36598;BME280;22607;49.550;11.940;2023-08-06T00:49:47;96072.81;;;16.43;100.00
36598;BME280;22607;49.550;11.940;2023-08-06T00:52:14;96084.69;;;16.52;100.00
36598;BME280;22607;49.550;11.940;2023-08-06T00:54:41;96084.97;;;16.20;100.00
36598;BME280;22607;49.550;11.940;2023-08-06T00:57:09;96088.84;;;16.06;100.00
36598;BME280;22607;49.550;11.940;2023-08-06T00:59:36;96080.69;;;16.07;100.00
36598;BME280;22607;49.550;11.940;2023-08-06T01:02:02;96076.97;;;15.96;100.00
36598;BME280;22607;49.550;11.940;2023-08-06T01:04:29;96081.50;;;15.89;100.00
36598;BME280;22607;49.550;11.940;2023-08-06T01:07:05;96068.63;;;15.62;100.00
36598;BME280;22607;49.550;11.940;2023-08-06T01:17:33;96059.19;;;15.66;100.00
36598;BME280;22607;49.550;11.940;2023-08-06T01:20:00;96068.44;;;15.75;100.00
36598;BME280;22607;49.550;11.940;2023-08-06T01:22:27;96065.56;;;15.77;100.00
36598;BME280;22607;49.550;11.940;2023-08-06T01:24:54;96064.59;;;15.90;100.00
36598;BME280;22607;49.550;11.940;2023-08-06T01:30:18;96051.19;;;15.85;100.00
36598;BME280;22607;49.550;11.940;2023-08-06T01:32:49;96031.66;;;15.86;100.00
36598;BME280;22607;49.550;11.940;2023-08-06T01:35:19;96036.63;;;15.94;100.00
36598;BME280;22607;49.550;11.940;2023-08-06T01:37:46;96031.78;;;15.91;100.00
36598;BME280;22607;49.550;11.940;2023-08-06T01:40:14;96040.59;;;16.04;100.00
36598;BME280;22607;49.550;11.940;2023-08-06T01:42:40;96032.97;;;15.95;100.00
36598;BME280;22607;49.550;11.940;2023-08-06T01:45:07;96041.63;;;16.03;100.00
36598;BME280;22607;49.550;11.940;2023-08-06T01:47:35;96035.16;;;15.98;100.00
36598;BME280;22607;49.550;11.940;2023-08-06T01:50:02;96048.25;;;15.93;100.00
36598;BME280;22607;49.550;11.940;2023-08-06T01:52:28;96046.06;;;15.90;100.00
36598;BME280;22607;49.550;11.940;2023-08-06T01:54:55;96044.75;;;15.99;100.00
36598;BME280;22607;49.550;11.940;2023-08-06T01:57:22;96041.63;;;16.03;100.00
36598;BME280;22607;49.550;11.940;2023-08-06T01:59:48;96032.28;;;16.00;100.00
36598;BME280;22607;49.550;11.940;2023-08-06T02:02:15;96024.41;;;15.93;100.00
36598;BME280;22607;49.550;11.940;2023-08-06T02:04:42;96013.88;;;16.05;100.00
36598;BME280;22607;49.550;11.940;2023-08-06T02:07:08;96015.84;;;16.10;100.00
36598;BME280;22607;49.550;11.940;2023-08-06T02:09:35;96011.81;;;16.07;100.00
36598;BME280;22607;49.550;11.940;2023-08-06T02:12:02;96006.97;;;16.04;100.00
36598;BME280;22607;49.550;11.940;2023-08-06T02:14:29;95995.03;;;15.83;100.00
36598;BME280;22607;49.550;11.940;2023-08-06T02:16:55;95993.19;;;15.71;100.00
36598;BME280;22607;49.550;11.940;2023-08-06T02:19:22;96004.78;;;15.70;100.00
36598;BME280;22607;49.550;11.940;2023-08-06T02:21:48;95999.03;;;15.73;100.00
36598;BME280;22607;49.550;11.940;2023-08-06T02:24:15;95982.03;;;15.81;100.00
36598;BME280;22607;49.550;11.940;2023-08-06T02:26:42;95984.44;;;15.83;100.00
36598;BME280;22607;49.550;11.940;2023-08-06T02:29:08;95979.59;;;15.80;100.00
36598;BME280;22607;49.550;11.940;2023-08-06T02:31:35;95984.00;;;15.86;100.00
36598;BME280;22607;49.550;11.940;2023-08-06T02:34:01;95985.09;;;15.78;100.00
36598;BME280;22607;49.550;11.940;2023-08-06T02:36:28;95979.59;;;15.80;100.00
36598;BME280;22607;49.550;11.940;2023-08-06T02:38:55;95979.50;;;15.86;100.00
36598;BME280;22607;49.550;11.940;2023-08-06T02:41:22;95986.06;;;15.84;100.00
36598;BME280;22607;49.550;11.940;2023-08-06T02:43:49;95976.41;;;15.90;100.00
36598;BME280;22607;49.550;11.940;2023-08-06T02:46:15;95978.72;;;15.86;100.00
36598;BME280;22607;49.550;11.940;2023-08-06T02:48:42;95968.78;;;15.81;100.00
36598;BME280;22607;49.550;11.940;2023-08-06T02:51:08;95972.69;;;15.79;100.00
36598;BME280;22607;49.550;11.940;2023-08-06T02:53:35;95964.06;;;15.71;100.00
36598;BME280;22607;49.550;11.940;2023-08-06T02:56:01;95987.72;;;15.66;100.00
36598;BME280;22607;49.550;11.940;2023-08-06T02:58:29;95975.41;;;15.60;100.00
36598;BME280;22607;49.550;11.940;2023-08-06T03:01:03;95992.53;;;15.57;100.00
36598;BME280;22607;49.550;11.940;2023-08-06T03:03:32;95978.06;;;15.60;100.00
36598;BME280;22607;49.550;11.940;2023-08-06T03:05:59;95981.47;;;15.48;100.00
36598;BME280;22607;49.550;11.940;2023-08-06T03:08:26;95977.19;;;15.47;100.00
36598;BME280;22607;49.550;11.940;2023-08-06T03:10:53;95971.63;;;15.37;100.00
36598;BME280;22607;49.550;11.940;2023-08-06T03:13:20;95974.78;;;15.46;100.00
36598;BME280;22607;49.550;11.940;2023-08-06T03:15:57;95974.78;;;15.46;100.00
36598;BME280;22607;49.550;11.940;2023-08-06T03:18:24;95963.25;;;15.40;100.00
36598;BME280;22607;49.550;11.940;2023-08-06T03:20:52;95965.47;;;15.43;100.00
36598;BME280;22607;49.550;11.940;2023-08-06T03:23:19;95965.91;;;15.40;100.00
36598;BME280;22607;49.550;11.940;2023-08-06T03:25:46;95973.44;;;15.25;100.00
36598;BME280;22607;49.550;11.940;2023-08-06T03:28:13;95976.09;;;15.25;100.00
36598;BME280;22607;49.550;11.940;2023-08-06T03:30:39;95980.03;;;15.34;100.00
36598;BME280;22607;49.550;11.940;2023-08-06T03:33:06;95976.22;;;15.30;100.00
36598;BME280;22607;49.550;11.940;2023-08-06T03:35:33;95978.53;;;15.38;100.00
36598;BME280;22607;49.550;11.940;2023-08-06T03:37:59;95982.47;;;15.47;100.00
36598;BME280;22607;49.550;11.940;2023-08-06T03:40:26;95974.06;;;15.39;100.00
36598;BME280;22607;49.550;11.940;2023-08-06T03:42:52;95973.25;;;15.38;100.00
36598;BME280;22607;49.550;11.940;2023-08-06T03:45:19;95966.69;;;15.41;100.00
36598;BME280;22607;49.550;11.940;2023-08-06T03:47:45;95966.34;;;15.37;100.00
36598;BME280;22607;49.550;11.940;2023-08-06T03:50:12;95954.59;;;15.33;100.00
36598;BME280;22607;49.550;11.940;2023-08-06T03:52:39;95956.22;;;15.34;100.00
36598;BME280;22607;49.550;11.940;2023-08-06T03:55:06;95957.19;;;15.21;100.00
36598;BME280;22607;49.550;11.940;2023-08-06T03:57:33;95963.00;;;15.30;100.00
36598;BME280;22607;49.550;11.940;2023-08-06T03:59:59;95960.50;;;15.35;100.00
36598;BME280;22607;49.550;11.940;2023-08-06T04:02:26;95959.44;;;15.36;100.00
36598;BME280;22607;49.550;11.940;2023-08-06T04:04:53;95955.50;;;15.27;100.00
36598;BME280;22607;49.550;11.940;2023-08-06T04:07:20;95955.63;;;15.32;100.00
36598;BME280;22607;49.550;11.940;2023-08-06T04:09:55;95945.34;;;15.23;100.00
36598;BME280;22607;49.550;11.940;2023-08-06T04:12:21;95956.84;;;15.17;100.00
36598;BME280;22607;49.550;11.940;2023-08-06T04:14:49;95951.69;;;15.22;100.00
36598;BME280;22607;49.550;11.940;2023-08-06T04:17:16;95951.03;;;15.27;100.00
36598;BME280;22607;49.550;11.940;2023-08-06T04:19:42;95936.63;;;15.23;100.00
36598;BME280;22607;49.550;11.940;2023-08-06T04:22:09;95961.09;;;15.18;100.00
36598;BME280;22607;49.550;11.940;2023-08-06T04:24:36;95958.59;;;15.23;100.00
36598;BME280;22607;49.550;11.940;2023-08-06T04:27:02;95962.44;;;15.09;100.00
36598;BME280;22607;49.550;11.940;2023-08-06T04:29:29;95969.59;;;14.90;100.00
36598;BME280;22607;49.550;11.940;2023-08-06T04:31:55;95965.38;;;14.82;100.00
36598;BME280;22607;49.550;11.940;2023-08-06T04:34:22;95955.03;;;14.62;100.00
36598;BME280;22607;49.550;11.940;2023-08-06T04:36:49;95948.06;;;14.86;100.00
36598;BME280;22607;49.550;11.940;2023-08-06T04:39:15;95940.50;;;14.90;100.00
36598;BME280;22607;49.550;11.940;2023-08-06T04:41:42;95947.63;;;14.89;100.00
36598;BME280;22607;49.550;11.940;2023-08-06T04:44:08;95946.00;;;14.88;100.00
36598;BME280;22607;49.550;11.940;2023-08-06T04:46:35;95941.28;;;14.90;100.00
36598;BME280;22607;49.550;11.940;2023-08-06T04:49:01;95939.53;;;15.03;100.00
36598;BME280;22607;49.550;11.940;2023-08-06T04:51:28;95943.47;;;15.12;100.00
36598;BME280;22607;49.550;11.940;2023-08-06T04:53:56;95952.22;;;14.94;100.00
36598;BME280;22607;49.550;11.940;2023-08-06T04:56:23;95934.69;;;15.00;100.00
36598;BME280;22607;49.550;11.940;2023-08-06T04:58:50;95947.38;;;15.09;100.00
36598;BME280;22607;49.550;11.940;2023-08-06T05:01:17;95946.69;;;15.14;100.00
36598;BME280;22607;49.550;11.940;2023-08-06T05:03:43;95945.31;;;15.12;100.00
36598;BME280;22607;49.550;11.940;2023-08-06T05:06:10;95938.06;;;15.07;100.00
36598;BME280;22607;49.550;11.940;2023-08-06T05:08:37;95946.56;;;15.09;100.00
36598;BME280;22607;49.550;11.940;2023-08-06T05:11:03;95946.22;;;15.05;100.00
36598;BME280;22607;49.550;11.940;2023-08-06T05:13:30;95949.03;;;15.22;100.00
36598;BME280;22607;49.550;11.940;2023-08-06T05:15:56;95951.56;;;15.17;100.00
36598;BME280;22607;49.550;11.940;2023-08-06T05:18:23;95948.59;;;15.26;100.00
36598;BME280;22607;49.550;11.940;2023-08-06T05:20:49;95951.84;;;15.09;100.00
36598;BME280;22607;49.550;11.940;2023-08-06T05:23:16;95946.41;;;15.22;100.00
36598;BME280;22607;49.550;11.940;2023-08-06T05:25:43;95948.28;;;15.34;100.00
36598;BME280;22607;49.550;11.940;2023-08-06T05:28:09;95958.16;;;15.27;100.00
36598;BME280;22607;49.550;11.940;2023-08-06T05:30:42;95955.19;;;15.35;100.00
36598;BME280;22607;49.550;11.940;2023-08-06T05:33:09;95942.56;;;15.49;100.00
36598;BME280;22607;49.550;11.940;2023-08-06T05:35:35;95938.88;;;15.50;100.00
36598;BME280;22607;49.550;11.940;2023-08-06T05:38:02;95939.44;;;15.40;100.00
36598;BME280;22607;49.550;11.940;2023-08-06T05:40:28;95936.25;;;15.50;100.00
36598;BME280;22607;49.550;11.940;2023-08-06T05:42:55;95933.97;;;15.54;100.00
36598;BME280;22607;49.550;11.940;2023-08-06T05:45:22;95935.06;;;15.34;100.00
36598;BME280;22607;49.550;11.940;2023-08-06T05:47:49;95940.53;;;15.51;100.00
36598;BME280;22607;49.550;11.940;2023-08-06T05:50:16;95929.13;;;15.51;100.00
36598;BME280;22607;49.550;11.940;2023-08-06T05:52:43;95935.00;;;15.53;100.00
36598;BME280;22607;49.550;11.940;2023-08-06T05:55:11;95927.25;;;15.39;100.00
36598;BME280;22607;49.550;11.940;2023-08-06T05:57:38;95923.38;;;15.54;100.00
36598;BME280;22607;49.550;11.940;2023-08-06T06:00:05;95918.63;;;15.44;100.00
36598;BME280;22607;49.550;11.940;2023-08-06T06:02:32;95921.25;;;15.32;100.00
36598;BME280;22607;49.550;11.940;2023-08-06T06:04:59;95923.47;;;15.47;100.00
36598;BME280;22607;49.550;11.940;2023-08-06T06:07:25;95925.03;;;15.79;100.00
36598;BME280;22607;49.550;11.940;2023-08-06T06:09:52;95926.09;;;15.90;100.00
36598;BME280;22607;49.550;11.940;2023-08-06T06:12:18;95923.50;;;16.01;100.00
36598;BME280;22607;49.550;11.940;2023-08-06T06:14:45;95913.34;;;15.98;100.00
36598;BME280;22607;49.550;11.940;2023-08-06T06:17:12;95926.72;;;16.04;100.00
36598;BME280;22607;49.550;11.940;2023-08-06T06:19:39;95921.44;;;16.16;100.00
36598;BME280;22607;49.550;11.940;2023-08-06T06:22:05;95914.63;;;16.20;100.00
36598;BME280;22607;49.550;11.940;2023-08-06T06:24:32;95918.31;;;16.19;100.00
36598;BME280;22607;49.550;11.940;2023-08-06T06:26:58;95917.41;;;16.25;100.00
36598;BME280;22607;49.550;11.940;2023-08-06T06:29:25;95903.69;;;16.16;100.00
36598;BME280;22607;49.550;11.940;2023-08-06T06:31:52;95902.41;;;16.31;100.00
36598;BME280;22607;49.550;11.940;2023-08-06T06:34:18;95915.09;;;16.29;100.00
36598;BME280;22607;49.550;11.940;2023-08-06T06:36:45;95915.09;;;16.40;100.00
36598;BME280;22607;49.550;11.940;2023-08-06T06:39:12;95913.09;;;16.60;100.00
36598;BME280;22607;49.550;11.940;2023-08-06T06:41:38;95914.84;;;16.54;100.00
36598;BME280;22607;49.550;11.940;2023-08-06T06:44:05;95915.88;;;16.65;100.00
36598;BME280;22607;49.550;11.940;2023-08-06T06:46:32;95924.69;;;16.83;100.00
36598;BME280;22607;49.550;11.940;2023-08-06T06:48:58;95919.31;;;16.53;100.00
36598;BME280;22607;49.550;11.940;2023-08-06T06:51:25;95916.31;;;16.62;100.00
36598;BME280;22607;49.550;11.940;2023-08-06T06:53:52;95917.31;;;16.85;100.00
36598;BME280;22607;49.550;11.940;2023-08-06T06:56:18;95907.41;;;17.21;100.00
36598;BME280;22607;49.550;11.940;2023-08-06T06:58:45;95909.34;;;17.26;100.00
36598;BME280;22607;49.550;11.940;2023-08-06T07:01:11;95895.72;;;17.51;100.00
36598;BME280;22607;49.550;11.940;2023-08-06T07:03:38;95894.13;;;17.67;100.00
36598;BME280;22607;49.550;11.940;2023-08-06T07:06:05;95889.00;;;18.12;100.00
36598;BME280;22607;49.550;11.940;2023-08-06T07:08:33;95901.84;;;18.38;100.00
36598;BME280;22607;49.550;11.940;2023-08-06T07:11:01;95896.97;;;19.19;100.00
36598;BME280;22607;49.550;11.940;2023-08-06T07:13:29;95892.16;;;19.76;100.00
36598;BME280;22607;49.550;11.940;2023-08-06T07:15:56;95904.09;;;20.01;100.00
36598;BME280;22607;49.550;11.940;2023-08-06T07:18:23;95906.13;;;19.61;100.00
36598;BME280;22607;49.550;11.940;2023-08-06T07:20:54;95894.69;;;19.33;100.00
36598;BME280;22607;49.550;11.940;2023-08-06T07:23:22;95895.50;;;19.33;100.00
36598;BME280;22607;49.550;11.940;2023-08-06T07:25:49;95898.84;;;18.73;100.00
36598;BME280;22607;49.550;11.940;2023-08-06T07:28:16;95888.19;;;19.46;100.00
36598;BME280;22607;49.550;11.940;2023-08-06T07:30:44;95894.13;;;19.58;100.00
36598;BME280;22607;49.550;11.940;2023-08-06T07:33:11;95881.41;;;21.00;95.57
36598;BME280;22607;49.550;11.940;2023-08-06T07:35:38;95877.41;;;21.08;87.54
36598;BME280;22607;49.550;11.940;2023-08-06T07:38:05;95859.59;;;21.29;83.82
36598;BME280;22607;49.550;11.940;2023-08-06T07:40:32;95876.41;;;21.40;84.36
36598;BME280;22607;49.550;11.940;2023-08-06T07:42:59;95873.78;;;21.97;85.19
36598;BME280;22607;49.550;11.940;2023-08-06T07:45:25;95871.44;;;20.80;90.21
36598;BME280;22607;49.550;11.940;2023-08-06T07:47:53;95881.06;;;20.86;85.40
36598;BME280;22607;49.550;11.940;2023-08-06T07:50:20;95876.03;;;20.90;84.53
36598;BME280;22607;49.550;11.940;2023-08-06T07:52:47;95875.66;;;19.79;89.90
36598;BME280;22607;49.550;11.940;2023-08-06T07:55:13;95884.66;;;19.40;95.88
36598;BME280;22607;49.550;11.940;2023-08-06T07:57:40;95892.31;;;19.31;100.00
36598;BME280;22607;49.550;11.940;2023-08-06T08:00:07;95878.41;;;19.01;100.00
36598;BME280;22607;49.550;11.940;2023-08-06T08:02:34;95887.63;;;18.49;100.00
36598;BME280;22607;49.550;11.940;2023-08-06T08:05:01;95868.09;;;19.05;100.00
36598;BME280;22607;49.550;11.940;2023-08-06T08:07:28;95852.44;;;18.86;100.00
36598;BME280;22607;49.550;11.940;2023-08-06T08:09:56;95857.34;;;19.88;100.00
36598;BME280;22607;49.550;11.940;2023-08-06T08:12:23;95853.41;;;21.13;90.46
36598;BME280;22607;49.550;11.940;2023-08-06T08:14:50;95844.47;;;20.71;90.28
36598;BME280;22607;49.550;11.940;2023-08-06T08:17:16;95853.13;;;19.97;95.83
36598;BME280;22607;49.550;11.940;2023-08-06T08:19:43;95846.03;;;19.37;100.00
36598;BME280;22607;49.550;11.940;2023-08-06T08:22:09;95856.59;;;18.55;100.00
36598;BME280;22607;49.550;11.940;2023-08-06T08:24:36;95848.44;;;18.61;100.00
36598;BME280;22607;49.550;11.940;2023-08-06T08:27:03;95854.66;;;18.50;100.00
36598;BME280;22607;49.550;11.940;2023-08-06T08:29:30;95854.97;;;18.76;100.00
36598;BME280;22607;49.550;11.940;2023-08-06T08:31:56;95852.03;;;18.72;100.00
36598;BME280;22607;49.550;11.940;2023-08-06T08:34:23;95846.06;;;18.87;100.00
36598;BME280;22607;49.550;11.940;2023-08-06T08:36:50;95839.22;;;18.97;100.00
36598;BME280;22607;49.550;11.940;2023-08-06T08:39:17;95845.13;;;19.97;98.51
36598;BME280;22607;49.550;11.940;2023-08-06T08:41:43;95841.34;;;20.95;84.03
36598;BME280;22607;49.550;11.940;2023-08-06T08:44:10;95836.28;;;20.98;83.73
36598;BME280;22607;49.550;11.940;2023-08-06T08:46:38;95830.41;;;20.96;82.38
36598;BME280;22607;49.550;11.940;2023-08-06T08:49:06;95833.97;;;20.49;83.93
36598;BME280;22607;49.550;11.940;2023-08-06T08:51:34;95840.00;;;20.92;86.56
36598;BME280;22607;49.550;11.940;2023-08-06T08:54:04;95840.66;;;20.51;84.66
36598;BME280;22607;49.550;11.940;2023-08-06T08:56:31;95838.66;;;20.20;81.24
36598;BME280;22607;49.550;11.940;2023-08-06T08:58:58;95840.44;;;20.04;84.37
36598;BME280;22607;49.550;11.940;2023-08-06T09:01:28;95852.34;;;19.97;89.58
36598;BME280;22607;49.550;11.940;2023-08-06T09:03:56;95843.25;;;21.10;73.79
36598;BME280;22607;49.550;11.940;2023-08-06T09:06:25;95829.84;;;22.24;71.32
36598;BME280;22607;49.550;11.940;2023-08-06T09:09:06;95827.78;;;22.00;68.62
36598;BME280;22607;49.550;11.940;2023-08-06T09:11:37;95834.69;;;20.97;75.55
36598;BME280;22607;49.550;11.940;2023-08-06T09:14:07;95830.47;;;20.38;76.87
36598;BME280;22607;49.550;11.940;2023-08-06T09:16:38;95836.75;;;20.16;77.76
36598;BME280;22607;49.550;11.940;2023-08-06T09:19:09;95827.09;;;20.63;78.28
36598;BME280;22607;49.550;11.940;2023-08-06T09:21:38;95822.72;;;21.26;75.28
36598;BME280;22607;49.550;11.940;2023-08-06T09:24:12;95822.66;;;20.95;79.88
36598;BME280;22607;49.550;11.940;2023-08-06T09:26:40;95820.81;;;21.01;78.11
36598;BME280;22607;49.550;11.940;2023-08-06T09:29:08;95820.25;;;20.88;74.16
36598;BME280;22607;49.550;11.940;2023-08-06T09:31:48;95825.53;;;20.72;76.41
36598;BME280;22607;49.550;11.940;2023-08-06T09:34:15;95828.72;;;20.75;74.27
36598;BME280;22607;49.550;11.940;2023-08-06T09:36:47;95820.06;;;21.21;73.04
36598;BME280;22607;49.550;11.940;2023-08-06T09:39:21;95813.28;;;20.82;72.95
36598;BME280;22607;49.550;11.940;2023-08-06T09:41:48;95817.34;;;20.20;72.84
36598;BME280;22607;49.550;11.940;2023-08-06T09:44:19;95816.19;;;20.06;74.80
36598;BME280;22607;49.550;11.940;2023-08-06T09:46:53;95810.84;;;20.01;74.82
36598;BME280;22607;49.550;11.940;2023-08-06T09:49:24;95799.22;;;21.18;71.86
36598;BME280;22607;49.550;11.940;2023-08-06T09:51:51;95804.28;;;21.71;65.22
36598;BME280;22607;49.550;11.940;2023-08-06T09:54:20;95799.50;;;21.37;66.99
36598;BME280;22607;49.550;11.940;2023-08-06T09:56:50;95796.84;;;21.42;67.96
36598;BME280;22607;49.550;11.940;2023-08-06T09:59:18;95787.31;;;22.38;65.81
36598;BME280;22607;49.550;11.940;2023-08-06T10:01:45;95784.28;;;22.61;65.67
36598;BME280;22607;49.550;11.940;2023-08-06T10:04:13;95798.16;;;21.60;65.55
36598;BME280;22607;49.550;11.940;2023-08-06T10:06:49;95812.44;;;20.61;75.89
36598;BME280;22607;49.550;11.940;2023-08-06T10:09:17;95818.88;;;20.11;84.90
36598;BME280;22607;49.550;11.940;2023-08-06T10:11:50;95816.19;;;19.35;94.42
36598;BME280;22607;49.550;11.940;2023-08-06T10:14:25;95822.53;;;19.29;94.40
36598;BME280;22607;49.550;11.940;2023-08-06T10:16:53;95827.00;;;18.96;99.97
36598;BME280;22607;49.550;11.940;2023-08-06T10:19:24;95821.53;;;18.80;100.00
36598;BME280;22607;49.550;11.940;2023-08-06T10:22:10;95829.03;;;18.88;98.95
36598;BME280;22607;49.550;11.940;2023-08-06T10:32:48;95808.00;;;19.42;96.46
36598;BME280;22607;49.550;11.940;2023-08-06T10:35:41;95805.81;;;19.34;97.01
36598;BME280;22607;49.550;11.940;2023-08-06T10:38:20;95802.13;;;20.21;88.02
36598;BME280;22607;49.550;11.940;2023-08-06T10:43:32;95788.25;;;20.19;80.49
36598;BME280;22607;49.550;11.940;2023-08-06T10:46:01;95773.56;;;20.06;80.36
36598;BME280;22607;49.550;11.940;2023-08-06T10:48:38;95795.03;;;19.94;76.91
36598;BME280;22607;49.550;11.940;2023-08-06T10:51:11;95781.25;;;20.66;75.89
36598;BME280;22607;49.550;11.940;2023-08-06T10:53:41;95774.84;;;20.83;77.08
36598;BME280;22607;49.550;11.940;2023-08-06T10:56:19;95766.72;;;20.26;75.66
36598;BME280;22607;49.550;11.940;2023-08-06T10:58:47;95780.47;;;20.07;80.58
36598;BME280;22607;49.550;11.940;2023-08-06T11:01:14;95783.47;;;20.26;81.27
36598;BME280;22607;49.550;11.940;2023-08-06T11:03:43;95777.38;;;19.83;82.63
36598;BME280;22607;49.550;11.940;2023-08-06T11:06:10;95779.16;;;19.66;81.84
36598;BME280;22607;49.550;11.940;2023-08-06T11:08:40;95783.00;;;19.86;80.12
36598;BME280;22607;49.550;11.940;2023-08-06T11:11:14;95779.78;;;19.79;83.04
36598;BME280;22607;49.550;11.940;2023-08-06T11:13:45;95790.38;;;19.68;78.48
36598;BME280;22607;49.550;11.940;2023-08-06T11:16:20;95774.81;;;19.55;81.25
36598;BME280;22607;49.550;11.940;2023-08-06T11:18:47;95778.88;;;19.63;79.46
36598;BME280;22607;49.550;11.940;2023-08-06T11:21:14;95773.44;;;19.96;79.47
36598;BME280;22607;49.550;11.940;2023-08-06T11:23:41;95771.72;;;21.02;76.73
36598;BME280;22607;49.550;11.940;2023-08-06T11:26:08;95768.78;;;21.24;72.10
36598;BME280;22607;49.550;11.940;2023-08-06T11:28:35;95765.28;;;20.87;71.51
36598;BME280;22607;49.550;11.940;2023-08-06T11:31:01;95757.81;;;21.72;71.32
36598;BME280;22607;49.550;11.940;2023-08-06T11:33:30;95761.56;;;21.66;69.51
36598;BME280;22607;49.550;11.940;2023-08-06T11:35:59;95764.97;;;21.98;68.51
36598;BME280;22607;49.550;11.940;2023-08-06T11:38:27;95755.69;;;21.59;67.73
36598;BME280;22607;49.550;11.940;2023-08-06T11:40:55;95765.50;;;20.59;67.55
36598;BME280;22607;49.550;11.940;2023-08-06T11:43:21;95762.28;;;20.68;70.29
36598;BME280;22607;49.550;11.940;2023-08-06T11:45:49;95769.34;;;20.15;71.51
36598;BME280;22607;49.550;11.940;2023-08-06T11:48:17;95766.63;;;19.29;86.51
36598;BME280;22607;49.550;11.940;2023-08-06T11:50:45;95764.06;;;19.07;97.79
36598;BME280;22607;49.550;11.940;2023-08-06T11:53:15;95757.44;;;19.09;100.00
36598;BME280;22607;49.550;11.940;2023-08-06T11:55:42;95763.66;;;19.20;100.00
36598;BME280;22607;49.550;11.940;2023-08-06T11:58:10;95765.88;;;19.34;100.00
36598;BME280;22607;49.550;11.940;2023-08-06T12:00:41;95762.13;;;19.30;100.00
36598;BME280;22607;49.550;11.940;2023-08-06T12:03:09;95755.75;;;19.68;100.00
36598;BME280;22607;49.550;11.940;2023-08-06T12:05:37;95746.81;;;19.47;95.46
36598;BME280;22607;49.550;11.940;2023-08-06T12:08:06;95754.72;;;19.37;98.77
36598;BME280;22607;49.550;11.940;2023-08-06T12:10:35;95749.41;;;19.80;100.00
36598;BME280;22607;49.550;11.940;2023-08-06T12:13:01;95756.13;;;19.93;95.45
36598;BME280;22607;49.550;11.940;2023-08-06T12:15:29;95753.31;;;20.10;94.94
36598;BME280;22607;49.550;11.940;2023-08-06T12:17:58;95757.91;;;20.25;86.50
36598;BME280;22607;49.550;11.940;2023-08-06T12:20:25;95762.25;;;19.93;89.62
36598;BME280;22607;49.550;11.940;2023-08-06T12:22:52;95759.84;;;20.45;88.03
36598;BME280;22607;49.550;11.940;2023-08-06T12:25:18;95757.50;;;20.70;85.26
36598;BME280;22607;49.550;11.940;2023-08-06T12:27:47;95740.53;;;20.12;80.09
36598;BME280;22607;49.550;11.940;2023-08-06T12:30:13;95756.50;;;20.12;83.20
36598;BME280;22607;49.550;11.940;2023-08-06T12:32:40;95754.88;;;20.01;86.31
36598;BME280;22607;49.550;11.940;2023-08-06T12:35:07;95732.97;;;19.93;81.90
36598;BME280;22607;49.550;11.940;2023-08-06T12:37:35;95751.91;;;19.54;85.77
36598;BME280;22607;49.550;11.940;2023-08-06T12:40:02;95740.81;;;19.73;90.71
36598;BME280;22607;49.550;11.940;2023-08-06T12:42:50;95741.41;;;20.33;82.17
36598;BME280;22607;49.550;11.940;2023-08-06T12:45:17;95743.06;;;20.61;83.84
36598;BME280;22607;49.550;11.940;2023-08-06T12:47:47;95740.22;;;20.88;78.42
36598;BME280;22607;49.550;11.940;2023-08-06T12:50:15;95741.84;;;20.94;78.18
36598;BME280;22607;49.550;11.940;2023-08-06T12:52:41;95742.63;;;21.21;75.22
36598;BME280;22607;49.550;11.940;2023-08-06T12:55:09;95744.50;;;21.05;75.22
36598;BME280;22607;49.550;11.940;2023-08-06T12:57:36;95739.69;;;21.07;71.86
36598;BME280;22607;49.550;11.940;2023-08-06T13:00:22;95739.69;;;20.91;70.94
36598;BME280;22607;49.550;11.940;2023-08-06T13:02:49;95742.63;;;21.05;73.48
36598;BME280;22607;49.550;11.940;2023-08-06T13:05:16;95728.47;;;21.31;70.11
36598;BME280;22607;49.550;11.940;2023-08-06T13:07:42;95722.34;;;21.25;72.13